Time;durP1;ratioP1;P1;durP2;ratioP2;P2;SDS_P1;SDS_P2;PMS_P1;PMS_P2;Temp;Humidity;BMP_temperature;BMP_pressure;BME280_temperature;BME280_humidity;BME280_pressure;Samples;Min_cycle;Max_cycle;Signal;HPM_P1;HPM_P2
2020/12/23 00:01:44;;;;;;;7.87;3.47;;;;;;;7.88;100.00;100791.56;5055260;28;20219;-71
2020/12/23 00:04:09;;;;;;;9.50;3.37;;;;;;;7.79;100.00;100785.75;5039255;28;20300;-73
2020/12/23 00:06:38;;;;;;;22.87;10.60;;;;;;;7.86;100.00;100788.28;5055317;28;20280;-71
2020/12/23 00:09:04;;;;;;;10.37;3.27;;;;;;;7.76;100.00;100785.44;5072697;28;20187;-72
2020/12/23 00:11:29;;;;;;;11.67;3.67;;;;;;;7.78;100.00;100758.97;5055334;28;20227;-70
2020/12/23 00:13:55;;;;;;;12.40;4.37;;;;;;;7.69;100.00;100766.72;5074033;28;20175;-70
2020/12/23 00:16:23;;;;;;;7.83;3.50;;;;;;;7.52;100.00;100773.22;5071603;28;20608;-71
2020/12/23 00:18:51;;;;;;;8.10;2.30;;;;;;;7.40;100.00;100783.34;5040984;28;20648;-71
2020/12/23 00:21:16;;;;;;;8.23;2.30;;;;;;;7.38;100.00;100790.03;5091918;28;20225;-73
2020/12/23 00:23:42;;;;;;;6.93;2.27;;;;;;;7.29;100.00;100781.53;5093580;28;20182;-71
2020/12/23 00:26:08;;;;;;;14.93;7.33;;;;;;;7.24;100.00;100787.94;5057680;28;20225;-72
2020/12/23 00:28:34;;;;;;;10.43;3.70;;;;;;;7.16;100.00;100788.34;5058872;28;20167;-71
2020/12/23 00:31:07;;;;;;;14.27;3.03;;;;;;;7.17;100.00;100792.69;5075392;28;20229;-71
2020/12/23 00:33:35;;;;;;;9.97;3.10;;;;;;;7.13;100.00;100788.84;5059196;28;20194;-71
2020/12/23 00:36:01;;;;;;;9.17;3.23;;;;;;;7.07;100.00;100781.72;5091068;28;20233;-71
2020/12/23 00:38:26;;;;;;;9.33;3.37;;;;;;;7.02;100.00;100785.16;5075702;28;20198;-71
2020/12/23 00:40:52;;;;;;;10.63;4.20;;;;;;;6.92;100.00;100784.19;5058382;28;20245;-71
2020/12/23 00:43:20;;;;;;;17.63;7.93;;;;;;;6.87;100.00;100776.03;5058485;28;20178;-72
2020/12/23 00:45:47;;;;;;;14.80;5.97;;;;;;;6.84;100.00;100770.28;5090953;28;20222;-70
2020/12/23 00:48:15;;;;;;;13.97;4.50;;;;;;;6.77;100.00;100775.84;5075449;28;20202;-71
2020/12/23 00:50:41;;;;;;;8.67;3.57;;;;;;;6.74;100.00;100770.09;5063508;28;20271;-71
2020/12/23 00:53:09;;;;;;;10.07;3.37;;;;;;;6.75;100.00;100769.88;5083182;28;20178;-71
2020/12/23 00:55:34;;;;;;;10.00;3.10;;;;;;;6.70;100.00;100769.81;5062169;28;20215;-72
2020/12/23 00:58:00;;;;;;;18.97;2.97;;;;;;;6.78;100.00;100776.69;5044083;28;20213;-70
2020/12/23 01:00:27;;;;;;;11.50;2.47;;;;;;;6.81;100.00;100776.97;5074582;28;20695;-70
2020/12/23 01:02:53;;;;;;;9.03;2.40;;;;;;;6.90;100.00;100787.16;5057916;28;20186;-71
2020/12/23 01:05:19;;;;;;;6.97;3.50;;;;;;;7.06;100.00;100789.00;5059422;28;20183;-72
2020/12/23 01:07:46;;;;;;;8.60;3.80;;;;;;;7.12;100.00;100784.50;5064347;28;20195;-71
2020/12/23 01:10:12;;;;;;;10.47;4.63;;;;;;;7.22;100.00;100780.09;5048205;28;20179;-70
2020/12/23 01:12:40;;;;;;;15.80;5.43;;;;;;;7.23;100.00;100791.69;5055730;28;20179;-71
2020/12/23 01:15:05;;;;;;;11.33;4.67;;;;;;;7.35;100.00;100791.34;5054967;28;20206;-72
2020/12/23 01:17:31;;;;;;;24.90;7.87;;;;;;;7.26;100.00;100788.53;5054560;28;20586;-69
2020/12/23 01:19:56;;;;;;;20.50;9.27;;;;;;;7.38;100.00;100790.88;5054558;28;20209;-71
2020/12/23 01:22:24;;;;;;;41.90;10.33;;;;;;;7.43;100.00;100793.63;5037424;28;20280;-72
2020/12/23 01:24:53;;;;;;;27.87;9.60;;;;;;;7.31;100.00;100792.91;5054224;28;20208;-72
2020/12/23 01:27:18;;;;;;;24.07;10.07;;;;;;;7.51;100.00;100785.13;5038215;28;20313;-71
2020/12/23 01:29:44;;;;;;;35.93;10.17;;;;;;;7.49;100.00;100791.81;5054498;28;20182;-72
2020/12/23 01:32:14;;;;;;;36.60;10.83;;;;;;;7.49;100.00;100792.66;5036993;28;20257;-71
2020/12/23 01:34:40;;;;;;;24.83;10.53;;;;;;;7.47;100.00;100781.28;5035288;28;20313;-73
2020/12/23 01:37:06;;;;;;;47.70;10.87;;;;;;;7.51;100.00;100777.00;5079344;28;20245;-71
2020/12/23 01:39:34;;;;;;;62.57;13.03;;;;;;;7.68;100.00;100786.69;5041239;28;20175;-71
2020/12/23 01:41:59;;;;;;;51.53;10.77;;;;;;;7.59;100.00;100792.78;5057076;28;20217;-72
2020/12/23 01:44:25;;;;;;;151.47;11.80;;;;;;;7.68;100.00;100791.28;5057287;28;20174;-72
2020/12/23 01:46:53;;;;;;;186.20;12.27;;;;;;;7.47;100.00;100788.53;5056608;28;20222;-71
2020/12/23 01:49:19;;;;;;;54.03;9.10;;;;;;;7.51;100.00;100792.38;5057675;28;20192;-73
2020/12/23 01:51:44;;;;;;;31.07;7.90;;;;;;;7.36;100.00;100782.19;5053772;28;20679;-71
2020/12/23 01:54:13;;;;;;;33.93;8.60;;;;;;;7.38;100.00;100790.88;5037268;28;20616;-72
2020/12/23 01:56:42;;;;;;;23.13;7.27;;;;;;;7.34;100.00;100786.19;5070882;28;20214;-71
2020/12/23 01:59:07;;;;;;;49.57;8.10;;;;;;;7.42;100.00;100773.09;5037605;28;20551;-71
2020/12/23 02:01:42;;;;;;;55.00;8.83;;;;;;;7.50;100.00;100767.25;5053716;28;20210;-71
2020/12/23 02:04:07;;;;;;;78.70;8.40;;;;;;;7.45;100.00;100777.97;5054982;28;20178;-75
2020/12/23 02:06:34;;;;;;;192.47;12.77;;;;;;;7.44;100.00;100780.97;5069600;28;20233;-71
2020/12/23 02:09:02;;;;;;;129.83;9.23;;;;;;;7.37;100.00;100783.00;5054268;28;20211;-71
2020/12/23 02:11:30;;;;;;;83.77;9.00;;;;;;;7.44;100.00;100781.75;5053341;28;20700;-71
2020/12/23 02:13:58;;;;;;;98.13;9.03;;;;;;;7.28;100.00;100782.59;5054183;28;20252;-71
2020/12/23 02:16:23;;;;;;;165.77;9.83;;;;;;;7.15;100.00;100776.72;5036297;28;20285;-72
2020/12/23 02:18:49;;;;;;;93.83;8.63;;;;;;;7.12;100.00;100784.50;5055142;28;20640;-72
2020/12/23 02:21:15;;;;;;;85.27;9.07;;;;;;;7.17;100.00;100777.31;5054627;28;20233;-72
2020/12/23 02:23:41;;;;;;;105.47;9.60;;;;;;;7.27;100.00;100782.03;5072823;28;20187;-72
2020/12/23 02:26:07;;;;;;;161.67;11.93;;;;;;;7.29;100.00;100776.16;5054809;28;20229;-71
2020/12/23 02:28:33;;;;;;;78.83;8.40;;;;;;;7.10;100.00;100773.13;5070097;28;20195;-71
2020/12/23 02:31:00;;;;;;;89.17;8.37;;;;;;;7.17;100.00;100771.91;5020091;28;20297;-71
2020/12/23 02:33:26;;;;;;;68.87;8.63;;;;;;;6.96;100.00;100777.25;5020360;28;20195;-72
2020/12/23 02:35:51;;;;;;;136.97;12.07;;;;;;;6.94;100.00;100771.25;5068509;28;20666;-73
2020/12/23 02:38:20;;;;;;;72.47;8.67;;;;;;;7.07;100.00;100770.91;5038023;28;20745;-71
2020/12/23 02:40:45;;;;;;;79.47;9.00;;;;;;;6.96;100.00;100775.34;5016011;28;20211;-70
2020/12/23 02:43:11;;;;;;;42.83;7.40;;;;;;;6.87;100.00;100764.38;5033039;28;20237;-70
2020/12/23 02:45:36;;;;;;;99.53;8.97;;;;;;;6.95;100.00;100764.81;5036531;28;20226;-71
2020/12/23 02:48:02;;;;;;;99.70;9.37;;;;;;;6.97;100.00;100765.38;5036453;28;20202;-72
2020/12/23 02:50:33;;;;;;;133.90;11.93;;;;;;;7.00;100.00;100770.28;5035532;28;20221;-71
2020/12/23 02:53:05;;;;;;;71.77;7.93;;;;;;;7.12;100.00;100784.50;5070201;28;20186;-73
2020/12/23 02:55:33;;;;;;;127.57;11.53;;;;;;;7.13;100.00;100778.88;5048799;28;20594;-71
2020/12/23 02:58:01;;;;;;;41.93;7.23;;;;;;;7.08;100.00;100784.19;5016788;28;20196;-72
2020/12/23 03:00:29;;;;;;;78.80;8.67;;;;;;;7.02;100.00;100797.84;5036576;28;20223;-73
2020/12/23 03:02:55;;;;;;;57.10;9.77;;;;;;;7.09;100.00;100795.81;5070170;28;20179;-71
2020/12/23 03:05:23;;;;;;;63.57;8.20;;;;;;;7.03;100.00;100802.19;5052459;28;20194;-72
2020/12/23 03:07:49;;;;;;;90.40;8.10;;;;;;;6.85;100.00;100796.19;5052804;28;20195;-71
2020/12/23 03:10:14;;;;;;;41.20;6.73;;;;;;;6.82;100.00;100788.63;5068985;28;20562;-71
2020/12/23 03:12:42;;;;;;;34.70;7.00;;;;;;;6.89;100.00;100790.09;5036299;28;20179;-71
2020/12/23 03:15:11;;;;;;;35.40;7.13;;;;;;;6.90;100.00;100787.16;5051897;28;20214;-71
2020/12/23 03:17:36;;;;;;;58.53;7.10;;;;;;;7.08;100.00;100775.25;5069601;28;20234;-72
2020/12/23 03:20:02;;;;;;;44.57;7.30;;;;;;;6.97;100.00;100768.88;5052763;28;20175;-72
2020/12/23 03:22:30;;;;;;;58.30;7.60;;;;;;;6.95;100.00;100757.50;5069663;28;20290;-72
2020/12/23 03:24:56;;;;;;;63.30;7.67;;;;;;;6.86;100.00;100758.19;5052093;28;20183;-72
2020/12/23 03:27:24;;;;;;;52.00;6.90;;;;;;;6.51;100.00;100760.28;5052105;28;20234;-71
2020/12/23 03:29:49;;;;;;;58.03;6.27;;;;;;;6.51;100.00;100760.28;5036809;28;20660;-71
2020/12/23 03:32:15;;;;;;;57.70;7.43;;;;;;;6.60;100.00;100758.81;5068933;28;20215;-72
2020/12/23 03:34:43;;;;;;;102.23;10.73;;;;;;;6.69;100.00;100757.34;5052344;28;20272;-72
2020/12/23 03:37:12;;;;;;;130.60;11.70;;;;;;;6.85;100.00;100761.94;5035838;28;20861;-70
2020/12/23 03:39:37;;;;;;;33.27;5.87;;;;;;;6.67;100.00;100762.19;5068861;28;20177;-71
2020/12/23 03:42:03;;;;;;;119.93;10.07;;;;;;;6.74;100.00;100762.00;5058926;28;20215;-70
2020/12/23 03:44:31;;;;;;;129.30;9.53;;;;;;;6.55;100.00;100750.63;5072180;28;20256;-70
2020/12/23 03:46:57;;;;;;;35.40;5.70;;;;;;;6.63;100.00;100752.09;5055582;28;20229;-71
2020/12/23 03:49:27;;;;;;;64.90;6.93;;;;;;;6.60;100.00;100756.13;5056113;28;20556;-71
2020/12/23 03:51:52;;;;;;;63.77;6.33;;;;;;;6.46;100.00;100750.47;5072077;28;20226;-71
2020/12/23 03:54:18;;;;;;;54.27;5.20;;;;;;;6.58;100.00;100750.16;5074157;28;20174;-71
2020/12/23 03:56:44;;;;;;;87.33;6.83;;;;;;;6.53;100.00;100743.84;5038937;28;20230;-73
2020/12/23 03:59:09;;;;;;;31.53;4.23;;;;;;;6.49;100.00;100734.63;5056356;28;20171;-72
2020/12/23 04:01:35;;;;;;;29.53;3.63;;;;;;;6.56;100.00;100735.28;5067413;28;20226;-71
2020/12/23 04:04:00;;;;;;;33.90;4.03;;;;;;;6.55;100.00;100736.31;5076216;28;20178;-72
2020/12/23 04:06:26;;;;;;;28.13;4.03;;;;;;;6.54;100.00;100742.81;5091569;28;20683;-73
2020/12/23 04:08:52;;;;;;;37.30;4.20;;;;;;;6.55;100.00;100737.13;5093141;28;20166;-71
2020/12/23 04:11:20;;;;;;;91.17;7.30;;;;;;;6.32;100.00;100739.19;5075656;28;20225;-72
2020/12/23 04:13:48;;;;;;;36.40;4.67;;;;;;;6.16;100.00;100739.13;5092686;28;20331;-71
2020/12/23 04:16:14;;;;;;;37.60;4.53;;;;;;;6.14;100.00;100754.75;5075180;28;20218;-71
2020/12/23 04:18:39;;;;;;;73.37;6.73;;;;;;;6.13;100.00;100749.59;5075439;28;20185;-71
2020/12/23 04:21:07;;;;;;;101.43;8.03;;;;;;;6.14;100.00;100750.16;5071928;28;20218;-71
2020/12/23 04:23:36;;;;;;;34.53;3.80;;;;;;;6.22;100.00;100748.94;5092520;28;20197;-71
2020/12/23 04:26:02;;;;;;;21.40;3.70;;;;;;;6.19;100.00;100723.28;5075484;28;20365;-71
2020/12/23 04:28:30;;;;;;;21.03;3.47;;;;;;;6.13;100.00;100734.22;5042595;28;20198;-71
2020/12/23 04:30:55;;;;;;;18.73;3.20;;;;;;;6.07;100.00;100735.19;5092089;28;20316;-72
2020/12/23 04:33:23;;;;;;;31.07;4.07;;;;;;;6.23;100.00;100731.72;5092818;28;20190;-71
2020/12/23 04:35:49;;;;;;;37.20;3.67;;;;;;;6.11;100.00;100722.84;5091300;28;20231;-71
2020/12/23 04:38:15;;;;;;;42.63;3.53;;;;;;;5.78;100.00;100736.22;5075614;28;20202;-71
2020/12/23 04:40:42;;;;;;;20.50;2.90;;;;;;;5.53;100.00;100742.13;5074637;28;20653;-72
2020/12/23 04:43:08;;;;;;;17.07;2.80;;;;;;;5.60;100.00;100737.44;5082496;28;20193;-73
2020/12/23 04:45:35;;;;;;;44.10;4.83;;;;;;;5.72;100.00;100740.94;5072090;28;20218;-72
2020/12/23 04:48:00;;;;;;;39.63;3.97;;;;;;;5.94;100.00;100742.75;5073901;28;20204;-73
2020/12/23 04:50:26;;;;;;;15.17;3.00;;;;;;;5.85;100.00;100742.31;5083517;28;20226;-71
2020/12/23 04:52:54;;;;;;;25.47;3.07;;;;;;;5.80;100.00;100734.09;5060721;28;20185;-71
2020/12/23 04:55:20;;;;;;;29.77;3.17;;;;;;;5.86;100.00;100733.19;5058767;28;20202;-71
2020/12/23 04:57:46;;;;;;;26.03;3.20;;;;;;;5.94;100.00;100734.66;5059526;28;20667;-71
2020/12/23 05:00:12;;;;;;;97.57;5.90;;;;;;;5.88;100.00;100731.06;5091845;28;20226;-71
2020/12/23 05:02:38;;;;;;;19.73;3.23;;;;;;;5.76;100.00;100729.44;5058217;28;20182;-71
2020/12/23 05:05:04;;;;;;;27.77;2.97;;;;;;;5.71;100.00;100729.31;5074644;28;20186;-70
2020/12/23 05:07:32;;;;;;;20.83;3.23;;;;;;;5.68;100.00;100731.66;5057650;28;20274;-70
2020/12/23 05:09:57;;;;;;;9.47;2.33;;;;;;;5.52;100.00;100732.44;5075383;28;20182;-71
2020/12/23 05:12:23;;;;;;;26.83;2.90;;;;;;;5.56;100.00;100737.09;5074221;28;20225;-72
2020/12/23 05:14:51;;;;;;;19.87;2.90;;;;;;;5.74;100.00;100730.75;5092231;28;20213;-72
2020/12/23 05:17:17;;;;;;;36.17;2.77;;;;;;;5.51;100.00;100733.47;5057323;28;20698;-70
2020/12/23 05:19:43;;;;;;;16.13;2.83;;;;;;;5.69;100.00;100731.44;5091475;28;20211;-70
2020/12/23 05:22:09;;;;;;;16.77;2.77;;;;;;;5.72;100.00;100724.75;5074242;28;20245;-70
2020/12/23 05:24:37;;;;;;;7.13;2.30;;;;;;;5.66;100.00;100726.53;5057526;28;20179;-71
2020/12/23 05:27:06;;;;;;;22.10;2.67;;;;;;;5.63;100.00;100723.50;5074251;28;20304;-70
2020/12/23 05:29:34;;;;;;;23.07;2.93;;;;;;;5.69;100.00;100723.34;5058117;28;20189;-70
2020/12/23 05:32:03;;;;;;;16.43;2.60;;;;;;;5.63;100.00;100726.19;5048921;28;20328;-71
2020/12/23 05:34:32;;;;;;;18.97;2.50;;;;;;;5.74;100.00;100732.38;5067661;28;20556;-71
2020/12/23 05:36:59;;;;;;;19.17;2.80;;;;;;;5.76;100.00;100729.44;5074223;28;20304;-71
2020/12/23 05:39:31;;;;;;;15.83;2.70;;;;;;;5.69;100.00;100727.91;5092054;28;20178;-69
2020/12/23 05:41:58;;;;;;;28.20;2.87;;;;;;;5.66;100.00;100725.69;5059409;28;20210;-70
2020/12/23 05:44:24;;;;;;;31.00;3.27;;;;;;;5.57;100.00;100721.75;5057466;28;20192;-72
2020/12/23 05:46:53;;;;;;;15.60;2.50;;;;;;;5.55;100.00;100724.69;5073328;28;20226;-70
2020/12/23 05:49:22;;;;;;;8.57;2.10;;;;;;;5.55;100.00;100723.84;5074474;28;20220;-70
2020/12/23 05:51:48;;;;;;;30.33;3.80;;;;;;;5.41;100.00;100723.31;5073711;28;20237;-71
2020/12/23 05:54:14;;;;;;;41.63;3.90;;;;;;;5.37;100.00;100722.16;5057000;28;20184;-70
2020/12/23 05:56:44;;;;;;;14.57;2.83;;;;;;;5.27;100.00;100714.91;5073713;28;20595;-70
2020/12/23 05:59:10;;;;;;;26.97;3.07;;;;;;;5.56;100.00;100703.94;5068250;28;20214;-70
2020/12/23 06:01:37;;;;;;;20.53;2.90;;;;;;;5.67;100.00;100711.19;5020877;28;20711;-70
2020/12/23 06:04:07;;;;;;;21.50;3.30;;;;;;;5.66;100.00;100704.97;5071219;28;20735;-70
2020/12/23 06:06:33;;;;;;;9.87;3.10;;;;;;;5.58;100.00;100709.91;5053804;28;20219;-70
2020/12/23 06:09:04;;;;;;;14.57;2.83;;;;;;;5.49;100.00;100720.22;5055042;28;20648;-72
2020/12/23 06:11:40;;;;;;;12.37;3.10;;;;;;;5.26;100.00;100719.47;5017378;28;20227;-70
2020/12/23 06:14:06;;;;;;;12.17;3.13;;;;;;;5.20;100.00;100723.13;5034046;28;20234;-71
2020/12/23 06:16:33;;;;;;;7.27;2.60;;;;;;;5.08;100.00;100727.69;5051405;28;20720;-70
2020/12/23 06:18:59;;;;;;;13.90;2.83;;;;;;;5.25;100.00;100731.28;5021239;28;20175;-69
2020/12/23 06:21:28;;;;;;;12.17;2.63;;;;;;;5.27;100.00;100720.28;5037297;28;20234;-68
2020/12/23 06:24:04;;;;;;;31.00;14.13;;;;;;;5.33;100.00;100730.94;5030946;28;20207;-72
2020/12/23 06:26:31;;;;;;;19.83;8.50;;;;;;;5.20;100.00;100725.81;5040462;28;20222;-70
2020/12/23 06:29:00;;;;;;;25.87;10.37;;;;;;;5.32;100.00;100731.19;5037219;28;20178;-71
2020/12/23 06:31:27;;;;;;;14.60;3.53;;;;;;;5.31;100.00;100730.38;5065533;28;20218;-71
2020/12/23 06:33:52;;;;;;;15.70;3.00;;;;;;;5.33;100.00;100736.34;5090563;28;20193;-70
2020/12/23 06:36:28;;;;;;;34.93;4.00;;;;;;;5.39;100.00;100740.75;5055034;28;20264;-71
2020/12/23 06:39:20;;;;;;;27.47;3.60;;;;;;;5.33;100.00;100748.94;5057652;28;20240;-71
2020/12/23 06:41:46;;;;;;;10.17;3.53;;;;;;;5.49;100.00;100735.59;5045390;28;20228;-72
2020/12/23 06:44:12;;;;;;;10.30;3.70;;;;;;;5.68;100.00;100723.56;5040793;28;20176;-71
2020/12/23 06:46:59;;;;;;;15.17;3.67;;;;;;;5.77;100.00;100721.13;4997507;28;20228;-71
2020/12/23 06:49:50;;;;;;;14.03;3.17;;;;;;;5.60;100.00;100737.44;5030149;28;20238;-70
2020/12/23 06:52:21;;;;;;;43.87;5.07;;;;;;;5.57;100.00;100759.47;5052551;28;20219;-72
2020/12/23 06:55:01;;;;;;;27.07;3.90;;;;;;;5.73;100.00;100761.44;5070533;28;20220;-72
2020/12/23 06:57:55;;;;;;;23.37;3.80;;;;;;;5.71;100.00;100728.50;5084948;28;20222;-71
2020/12/23 07:00:23;;;;;;;15.90;4.13;;;;;;;5.82;100.00;100721.25;5073030;28;20206;-70
2020/12/23 07:03:01;;;;;;;16.63;4.20;;;;;;;5.92;100.00;100723.31;5087548;28;20671;-72
2020/12/23 07:05:27;;;;;;;30.30;5.00;;;;;;;5.80;100.00;100726.03;5057150;28;20218;-71
2020/12/23 07:07:58;;;;;;;23.53;3.80;;;;;;;5.68;100.00;100723.56;5089941;28;20903;-71
2020/12/23 07:10:36;;;;;;;31.57;4.80;;;;;;;5.65;100.00;100732.16;5056676;28;20214;-70
2020/12/23 07:13:03;;;;;;;36.47;4.27;;;;;;;5.66;100.00;100725.69;5075658;28;20186;-70
2020/12/23 07:15:34;;;;;;;32.07;4.50;;;;;;;5.66;100.00;100729.22;5072210;28;20312;-70
2020/12/23 07:18:11;;;;;;;22.33;4.53;;;;;;;5.76;100.00;100727.56;5073411;28;20210;-69
2020/12/23 07:20:52;;;;;;;13.93;3.77;;;;;;;5.72;100.00;100735.53;5052757;28;20293;-69
2020/12/23 07:23:19;;;;;;;21.93;4.30;;;;;;;5.87;100.00;100724.00;5037622;28;20282;-69
2020/12/23 07:25:45;;;;;;;19.37;4.30;;;;;;;5.93;100.00;100723.03;5057737;28;20316;-70
2020/12/23 07:28:11;;;;;;;17.97;3.87;;;;;;;5.93;100.00;100716.84;5092254;28;20569;-72
2020/12/23 07:30:42;;;;;;;23.50;4.37;;;;;;;5.90;100.00;100717.34;5068482;28;20238;-71
2020/12/23 07:33:10;;;;;;;14.70;4.20;;;;;;;5.98;100.00;100720.47;5076072;28;20194;-71
2020/12/23 07:35:36;;;;;;;13.80;4.20;;;;;;;6.01;100.00;100714.59;5092816;28;20237;-71
2020/12/23 07:38:08;;;;;;;14.10;4.53;;;;;;;6.06;100.00;100706.56;5093794;28;20206;-70
2020/12/23 07:40:35;;;;;;;11.70;4.17;;;;;;;6.05;100.00;100694.19;5093633;28;20214;-69
2020/12/23 07:43:01;;;;;;;16.00;4.67;;;;;;;6.09;100.00;100695.31;5077581;28;20182;-70
2020/12/23 07:45:30;;;;;;;7.67;4.07;;;;;;;6.24;100.00;100700.97;5059312;28;20240;-71
2020/12/23 07:48:00;;;;;;;9.57;4.60;;;;;;;6.25;100.00;100689.16;5061825;28;20205;-71
2020/12/23 07:50:26;;;;;;;10.77;4.47;;;;;;;6.22;100.00;100687.75;5076539;28;20271;-69
2020/12/23 07:52:52;;;;;;;18.27;6.47;;;;;;;6.23;100.00;100696.66;5095259;28;20186;-71
2020/12/23 07:55:22;;;;;;;14.30;9.83;;;;;;;6.13;100.00;100701.06;5062814;28;20213;-71
2020/12/23 07:57:54;;;;;;;7.70;6.57;;;;;;;6.18;100.00;100707.34;5050732;28;20194;-71
2020/12/23 08:00:20;;;;;;;8.30;6.27;;;;;;;6.31;100.00;100702.47;5058898;28;20262;-72
2020/12/23 08:02:46;;;;;;;8.60;5.23;;;;;;;6.29;100.00;100709.16;5074755;28;20178;-71
2020/12/23 08:05:12;;;;;;;9.57;5.30;;;;;;;6.32;100.00;100716.78;5092505;28;20186;-71
2020/12/23 08:07:42;;;;;;;7.83;5.03;;;;;;;6.41;100.00;100707.22;5093565;28;20210;-71
2020/12/23 08:10:19;;;;;;;5.90;5.00;;;;;;;6.61;100.00;100700.25;5076407;28;20269;-71
2020/12/23 08:12:54;;;;;;;7.10;5.20;;;;;;;6.69;100.00;100698.00;5060482;28;20178;-70
2020/12/23 08:15:19;;;;;;;6.50;4.93;;;;;;;6.72;100.00;100689.41;5075871;28;20259;-70
2020/12/23 08:17:45;;;;;;;6.63;4.70;;;;;;;6.81;100.00;100669.00;5076343;28;20186;-70
2020/12/23 08:20:15;;;;;;;8.47;4.90;;;;;;;6.88;100.00;100668.84;5039846;28;20189;-70
2020/12/23 08:22:44;;;;;;;9.87;5.50;;;;;;;6.97;100.00;100668.97;5076547;28;20174;-72
2020/12/23 08:25:17;;;;;;;7.30;5.33;;;;;;;6.99;100.00;100666.03;5041937;28;20269;-70
2020/12/23 08:27:49;;;;;;;10.00;5.80;;;;;;;6.96;100.00;100667.38;5060723;28;20255;-71
2020/12/23 08:30:19;;;;;;;8.60;5.30;;;;;;;6.91;100.00;100674.56;5053967;28;20198;-71
2020/12/23 08:33:01;;;;;;;6.37;5.17;;;;;;;7.06;100.00;100669.38;5039311;28;20218;-71
2020/12/23 08:35:30;;;;;;;7.13;5.50;;;;;;;7.01;100.00;100664.75;5074912;28;20238;-71
2020/12/23 08:38:00;;;;;;;6.63;4.77;;;;;;;7.17;100.00;100665.75;5076741;28;20194;-72
2020/12/23 08:40:30;;;;;;;7.70;5.00;;;;;;;7.19;100.00;100667.13;5059508;28;20686;-71
2020/12/23 08:42:58;;;;;;;7.97;5.23;;;;;;;7.38;100.00;100658.50;5076461;28;20182;-71
2020/12/23 08:45:30;;;;;;;7.83;5.03;;;;;;;7.33;100.00;100658.41;5074718;28;20257;-72
2020/12/23 08:47:58;;;;;;;9.17;5.30;;;;;;;7.44;100.00;100649.38;5075518;28;20194;-71
2020/12/23 08:50:25;;;;;;;9.47;6.13;;;;;;;7.52;100.00;100643.50;5058252;28;20218;-70
2020/12/23 08:52:54;;;;;;;9.47;5.20;;;;;;;7.56;100.00;100643.81;5076010;28;20181;-70
2020/12/23 08:55:26;;;;;;;7.57;4.77;;;;;;;7.61;100.00;100633.88;5091133;28;20209;-70
2020/12/23 08:58:05;;;;;;;8.43;4.67;;;;;;;7.68;100.00;100637.22;5076525;28;20198;-70
2020/12/23 09:00:32;;;;;;;7.83;4.90;;;;;;;7.71;100.00;100632.13;5029685;28;20226;-70
2020/12/23 09:02:58;;;;;;;5.63;4.80;;;;;;;7.84;100.00;100636.31;5055272;28;20170;-72
2020/12/23 09:05:36;;;;;;;7.47;4.90;;;;;;;7.90;100.00;100632.59;5054195;28;20179;-72
2020/12/23 09:08:09;;;;;;;7.13;4.67;;;;;;;7.99;100.00;100636.47;5055148;28;20565;-71
2020/12/23 09:10:38;;;;;;;6.83;5.20;;;;;;;7.93;100.00;100632.06;5031229;28;20286;-72
2020/12/23 09:13:08;;;;;;;7.13;4.53;;;;;;;7.97;100.00;100634.00;5015534;28;20295;-70
2020/12/23 09:15:37;;;;;;;6.87;4.43;;;;;;;7.99;100.00;100633.75;5018574;28;20578;-70
2020/12/23 09:18:13;;;;;;;6.20;4.00;;;;;;;7.94;100.00;100631.00;5019025;28;20195;-71
2020/12/23 09:20:42;;;;;;;5.63;3.53;;;;;;;7.91;100.00;100634.19;5018759;28;20212;-71
2020/12/23 09:23:09;;;;;;;7.33;3.53;;;;;;;7.90;100.00;100627.19;5051822;28;20703;-72
2020/12/23 09:25:35;;;;;;;6.80;3.83;;;;;;;8.00;100.00;100629.97;5018837;28;20243;-71
2020/12/23 09:28:05;;;;;;;6.37;4.27;;;;;;;8.05;100.00;100620.81;5055051;28;20202;-72
2020/12/23 09:30:47;;;;;;;6.17;4.50;;;;;;;8.00;100.00;100619.97;5061433;28;20218;-71
2020/12/23 09:33:16;;;;;;;6.60;4.90;;;;;;;8.09;100.00;100613.00;5065392;28;20194;-71
2020/12/23 09:35:43;;;;;;;7.30;4.70;;;;;;;8.11;100.00;100603.63;5051798;28;20227;-70
2020/12/23 09:38:15;;;;;;;7.43;4.77;;;;;;;8.06;100.00;100611.66;5053860;28;20672;-70
2020/12/23 09:40:43;;;;;;;6.47;4.93;;;;;;;8.14;100.00;100602.28;5070507;28;20324;-72
2020/12/23 09:43:14;;;;;;;7.83;5.30;;;;;;;8.17;100.00;100602.59;5038248;28;20193;-71
2020/12/23 09:45:42;;;;;;;5.43;4.83;;;;;;;8.07;100.00;100602.44;5020743;28;20230;-71
2020/12/23 09:48:08;;;;;;;8.47;5.00;;;;;;;8.02;100.00;100601.59;5021820;28;20203;-71
2020/12/23 09:50:36;;;;;;;6.10;4.30;;;;;;;8.12;100.00;100599.00;5045818;28;20306;-72
2020/12/23 09:53:02;;;;;;;6.73;4.80;;;;;;;8.17;100.00;100590.94;5035933;28;20183;-71
2020/12/23 09:55:28;;;;;;;5.33;4.37;;;;;;;8.08;100.00;100587.88;5052888;28;20226;-71
2020/12/23 09:57:56;;;;;;;7.20;4.60;;;;;;;8.18;100.00;100590.66;5070447;28;20209;-71
2020/12/23 10:00:27;;;;;;;7.27;4.87;;;;;;;8.23;100.00;100588.00;5061429;28;20199;-72
2020/12/23 10:02:54;;;;;;;7.23;4.73;;;;;;;8.31;100.00;100582.13;5072083;28;20189;-71
2020/12/23 10:05:22;;;;;;;5.70;4.87;;;;;;;8.39;100.00;100567.28;5023209;28;20262;-72
2020/12/23 10:07:47;;;;;;;6.70;4.83;;;;;;;8.28;100.00;100560.19;5051885;28;20208;-72
2020/12/23 10:10:13;;;;;;;8.87;5.20;;;;;;;8.48;100.00;100561.16;5058306;28;20595;-71
2020/12/23 10:12:43;;;;;;;7.40;4.70;;;;;;;8.41;100.00;100551.63;5029889;28;20194;-71
2020/12/23 10:15:09;;;;;;;7.40;5.27;;;;;;;8.49;100.00;100549.25;5036329;28;20195;-70
2020/12/23 10:17:35;;;;;;;9.27;5.57;;;;;;;8.53;100.00;100537.66;5070501;28;20195;-71
2020/12/23 10:20:01;;;;;;;7.90;5.63;;;;;;;8.55;100.00;100537.34;5037979;28;20182;-70
2020/12/23 10:22:27;;;;;;;9.57;5.63;;;;;;;8.59;100.00;100541.16;5053565;28;20215;-70
2020/12/23 10:24:53;;;;;;;8.70;5.90;;;;;;;8.56;100.00;100544.41;5054658;28;20175;-70
2020/12/23 10:27:23;;;;;;;8.70;6.27;;;;;;;8.56;100.00;100530.88;5053928;28;20222;-70
2020/12/23 10:29:49;;;;;;;7.60;5.70;;;;;;;8.54;100.00;100525.72;5059752;28;20198;-74
2020/12/23 10:32:15;;;;;;;8.00;6.57;;;;;;;8.50;100.00;100518.41;5052138;28;20218;-73
2020/12/23 10:34:42;;;;;;;9.33;6.43;;;;;;;8.57;100.00;100510.84;5035668;28;20179;-73
2020/12/23 10:37:07;;;;;;;11.40;6.77;;;;;;;8.56;100.00;100507.31;5032738;28;20297;-73
2020/12/23 10:39:33;;;;;;;11.70;6.90;;;;;;;8.53;100.00;100510.56;5032853;28;20656;-74
2020/12/23 10:41:59;;;;;;;11.40;6.90;;;;;;;8.54;100.00;100500.56;5032413;28;20257;-73
2020/12/23 10:44:25;;;;;;;11.23;7.33;;;;;;;8.57;100.00;100490.03;5032123;28;20265;-73
2020/12/23 10:46:59;;;;;;;13.33;7.73;;;;;;;8.66;100.00;100482.19;5032919;28;20227;-72
2020/12/23 10:49:27;;;;;;;11.90;7.87;;;;;;;8.57;100.00;100468.38;5050922;28;20174;-73
2020/12/23 10:51:57;;;;;;;11.97;7.93;;;;;;;8.47;100.00;100470.19;5049527;28;20219;-73
2020/12/23 10:54:24;;;;;;;12.83;7.47;;;;;;;8.55;100.00;100470.53;5034129;28;20191;-72
2020/12/23 10:56:49;;;;;;;9.80;7.47;;;;;;;8.58;100.00;100458.34;5032986;28;20234;-73
2020/12/23 10:59:20;;;;;;;13.70;8.60;;;;;;;8.69;100.00;100454.59;5037717;28;20213;-72
2020/12/23 11:01:55;;;;;;;14.03;9.07;;;;;;;8.88;100.00;100446.56;5069430;28;20284;-73
2020/12/23 11:04:24;;;;;;;14.53;8.83;;;;;;;8.91;100.00;100448.72;5034634;28;20259;-72
2020/12/23 11:06:50;;;;;;;14.30;9.13;;;;;;;8.97;100.00;100452.25;5020308;28;20233;-73
2020/12/23 11:09:17;;;;;;;14.80;8.83;;;;;;;9.08;100.00;100446.59;5060748;28;20215;-73
2020/12/23 11:11:48;;;;;;;15.70;9.53;;;;;;;9.07;100.00;100436.03;5059809;28;20235;-73
2020/12/23 11:14:13;;;;;;;14.43;9.30;;;;;;;9.05;100.00;100430.88;5041677;28;20206;-72
2020/12/23 11:16:39;;;;;;;15.47;9.37;;;;;;;9.12;100.00;100433.31;5039953;28;20704;-72
2020/12/23 11:19:04;;;;;;;13.53;8.70;;;;;;;9.11;100.00;100427.09;5051033;28;20187;-72
2020/12/23 11:21:32;;;;;;;14.73;9.23;;;;;;;9.20;100.00;100426.28;5054679;28;20226;-73
2020/12/23 11:23:58;;;;;;;15.37;9.67;;;;;;;9.20;100.00;100426.28;5057277;28;20656;-74